createdAt,value
2022-10-28T00:00:35.362Z,100
2022-10-28T00:10:36.029Z,100
2022-10-28T00:20:36.489Z,100
2022-10-28T00:30:36.801Z,100
2022-10-28T00:40:37.074Z,100
2022-10-28T00:50:37.874Z,100
2022-10-28T01:00:38.001Z,100
2022-10-28T01:10:39.075Z,100
2022-10-28T01:20:40.919Z,100
2022-10-28T01:30:39.993Z,100
2022-10-28T01:40:40.196Z,100
2022-10-28T01:50:40.778Z,100
2022-10-28T02:00:41.559Z,100
2022-10-28T02:10:42.261Z,100
2022-10-28T02:20:43.004Z,100
2022-10-28T02:30:43.453Z,100
2022-10-28T02:40:43.673Z,100
2022-10-28T03:00:44.541Z,100
2022-10-28T03:10:44.688Z,100
2022-10-28T03:20:45.156Z,100
2022-10-28T03:30:45.912Z,100
2022-10-28T03:40:46.888Z,100
2022-10-28T03:50:47.204Z,100
2022-10-28T04:00:48.034Z,100
2022-10-28T04:10:48.868Z,100
2022-10-28T04:20:49.404Z,100
2022-10-28T04:30:49.582Z,100
2022-10-28T04:40:50.170Z,100
2022-10-28T04:50:50.814Z,100
2022-10-28T05:00:51.393Z,100
2022-10-28T05:10:52.094Z,100
2022-10-28T05:20:53.176Z,100
2022-10-28T05:30:53.801Z,100
2022-10-28T05:40:54.646Z,100
2022-10-28T05:50:55.409Z,100
2022-10-28T06:00:55.609Z,100
2022-10-28T06:10:54.176Z,100
2022-10-28T06:20:54.581Z,100
2022-10-28T06:30:54.722Z,100
2022-10-28T06:40:55.725Z,100
2022-10-28T06:50:57.524Z,100
2022-10-28T07:00:58.429Z,100
2022-10-28T07:10:58.656Z,100
2022-10-28T07:20:58.957Z,100
2022-10-28T07:30:59.790Z,100
2022-10-28T07:41:00.453Z,99
2022-10-28T07:51:01.514Z,95
2022-10-28T08:01:02.438Z,92
2022-10-28T08:11:03.437Z,90
2022-10-28T08:21:03.597Z,89
2022-10-28T08:31:08.466Z,89
2022-10-28T08:41:04.011Z,88
2022-10-28T08:51:04.155Z,86
2022-10-28T09:01:05.054Z,85
2022-10-28T09:11:05.471Z,83
2022-10-28T09:21:06.368Z,81
2022-10-28T09:21:28.278Z,81
2022-10-28T09:31:12.842Z,78
2022-10-28T09:41:13.069Z,78
2022-10-28T09:51:13.835Z,78
2022-10-28T10:01:14.644Z,76
2022-10-28T10:21:15.874Z,75
2022-10-28T10:31:16.117Z,75
2022-10-28T10:51:17.379Z,75
2022-10-28T11:01:17.698Z,74
2022-10-28T11:11:18.628Z,73
2022-10-28T11:21:19.174Z,73
2022-10-28T11:31:19.933Z,74
2022-10-28T11:41:20.349Z,73
2022-10-28T11:51:20.892Z,72
2022-10-28T12:01:21.341Z,71
2022-10-28T12:11:21.907Z,70
2022-10-28T12:21:22.176Z,71
2022-10-28T12:31:23.110Z,69
2022-10-28T12:41:23.981Z,70
2022-10-28T12:51:24.332Z,70
2022-10-28T13:01:25.331Z,70
2022-10-28T13:11:26.121Z,69
2022-10-28T13:21:26.312Z,68
2022-10-28T13:31:26.967Z,69
2022-10-28T13:41:27.668Z,70
2022-10-28T13:51:27.938Z,71
2022-10-28T14:01:29.102Z,71
2022-10-28T14:11:29.462Z,72
2022-10-28T14:21:29.585Z,73
2022-10-28T14:31:30.017Z,73
2022-10-28T14:41:31.100Z,74
2022-10-28T14:51:31.833Z,75
2022-10-28T15:01:32.062Z,74
2022-10-28T15:11:32.726Z,74
2022-10-28T15:21:33.602Z,74
2022-10-28T15:31:34.662Z,74
2022-10-28T15:41:35.220Z,74
2022-10-28T15:51:35.344Z,75
2022-10-28T16:01:36.150Z,76
2022-10-28T16:11:36.739Z,77
2022-10-28T16:21:36.910Z,79
2022-10-28T16:31:37.283Z,80
2022-10-28T16:51:38.445Z,81
2022-10-28T17:01:39.518Z,82
2022-10-28T17:11:40.186Z,83
2022-10-28T17:21:41.085Z,83
2022-10-28T17:31:42.028Z,84
2022-10-28T17:41:43.038Z,86
2022-10-28T17:51:43.835Z,87
2022-10-28T18:01:44.012Z,87
2022-10-28T18:11:44.579Z,88
2022-10-28T18:21:45.619Z,89
2022-10-28T18:31:46.430Z,90
2022-10-28T18:41:47.467Z,90
2022-10-28T18:51:47.756Z,91
2022-10-28T19:01:48.375Z,91
2022-10-28T19:11:49.270Z,91
2022-10-28T19:21:49.441Z,91
2022-10-28T19:31:49.693Z,92
2022-10-28T19:41:50.738Z,92
2022-10-28T19:51:51.661Z,92
2022-10-28T20:01:52.619Z,93
2022-10-28T20:11:52.802Z,93
2022-10-28T20:21:53.660Z,93
2022-10-28T20:31:54.243Z,93
2022-10-28T20:41:54.487Z,94
2022-10-28T20:51:55.036Z,95
2022-10-28T21:01:56.161Z,95
2022-10-28T21:11:56.830Z,96
2022-10-28T21:21:57.919Z,96
2022-10-28T21:31:58.575Z,96
2022-10-28T21:41:58.733Z,97
2022-10-28T21:51:59.744Z,97
2022-10-28T22:02:00.807Z,98
2022-10-28T22:12:00.869Z,99
2022-10-28T22:22:02.373Z,99
2022-10-28T22:32:02.824Z,100
2022-10-28T22:42:03.226Z,100
2022-10-28T22:52:03.715Z,100
2022-10-28T23:02:06.985Z,100
2022-10-28T23:12:07.210Z,100
2022-10-28T23:32:05.897Z,100
2022-10-28T23:42:06.924Z,100
2022-10-28T23:52:07.105Z,100
